Fairhope, AL

6:49 PM CDT on April 23, 2018 (GMT -0500)
Fairhope

Weather History for KCQF - October, 2012

Change the Weather History Date:

Monday, October 1, 2012

  Actual Average (KBFM) Record (KBFM)
Temperature  
Mean Temperature 73 °F -  
Max Temperature 78 °F 81 °F 90 °F (1997)
Min Temperature 68 °F 64 °F 48 °F (1999)
Cooling Degree Days 8    
Growing Degree Days 23 (Base 50)    
Moisture  
Dew Point 68 °F    
Average Humidity 80    
Maximum Humidity 94    
Minimum Humidity 65    
Precipitation  
Precipitation 0.53 in - - ()
Sea Level Pressure  
Sea Level Pressure 29.62 in    
Wind  
Wind Speed 11 mph (SW)    
Max Wind Speed 18 mph    
Max Gust Speed 24 mph    
Visibility 10 miles    
Events Rain    
Averages and records for this station are not official NWS values.
T = Trace of Precipitation, MM = Missing Value Source: NWS Daily Summary

Daily Weather History Graph

Daily Weather History Graph

Search for Another Location

Airport or City:

Astronomy

Oct. 01, 2012 Rise Set
Actual Time 6:45 AM CDT 6:36 PM CDT
Civil Twilight 6:21 AM CDT 7:00 PM CDT
Nautical Twilight 5:53 AM CDT 7:28 PM CDT
Astronomical Twilight 5:25 AM CDT 7:55 PM CDT
Moon 7:24 PM CDT (10/1) 8:04 AM CDT (10/1)
Length of Visible Light 12h 38m
Length of Day
11h 50m
Full, 98% of the Moon is Illuminated
Oct 1
Full
Oct 8
Last Quarter
Oct 15
New
Oct 21
First Quarter
Oct 29
Full

Hourly Weather History & Observations

Time (CDT) Temp. Dew Point Humidity Pressure Visibility Wind Dir Wind Speed Gust Speed Precip Events Conditions
12:15 AM 78.8 °F 77.0 °F 94% 29.62 in 2.5 mi South 11.5 mph 24.2 mph 0.02 in Rain Heavy Rain
12:35 AM 77.0 °F 75.2 °F 94% 29.61 in 7.0 mi SSE 17.3 mph 24.2 mph 0.11 in Rain Light Rain
12:55 AM 77.0 °F 73.4 °F 89% 29.60 in 7.0 mi SSE 11.5 mph - 0.18 in Rain Light Rain
1:15 AM 77.0 °F 73.4 °F 89% 29.61 in 2.0 mi South 18.4 mph 24.2 mph 0.05 in Rain Heavy Rain
1:35 AM 77.0 °F 75.2 °F 94% 29.59 in 7.0 mi South 15.0 mph 21.9 mph 0.13 in   Mostly Cloudy
1:55 AM 77.0 °F 75.2 °F 94% 29.58 in 10.0 mi South 12.7 mph 18.4 mph 0.21 in   Overcast
2:15 AM 78.8 °F 75.2 °F 89% 29.58 in 10.0 mi South 10.4 mph 16.1 mph 0.05 in   Overcast
2:35 AM 78.8 °F 77.0 °F 94% 29.57 in 10.0 mi South 10.4 mph - 0.09 in   Overcast
2:55 AM 78.8 °F 75.2 °F 89% 29.56 in 10.0 mi South 10.4 mph - 0.12 in   Overcast
3:15 AM 78.8 °F 77.0 °F 94% 29.55 in 10.0 mi South 8.1 mph - N/A   Mostly Cloudy
3:35 AM 78.8 °F 73.4 °F 83% 29.55 in 10.0 mi South 6.9 mph - N/A   Mostly Cloudy
3:55 AM 78.8 °F 73.4 °F 83% 29.55 in 10.0 mi South 11.5 mph 18.4 mph N/A   Scattered Clouds
4:15 AM 78.8 °F 75.2 °F 89% 29.55 in 10.0 mi South 12.7 mph 18.4 mph N/A   Scattered Clouds
4:35 AM 78.8 °F 73.4 °F 83% 29.56 in 10.0 mi SSW 12.7 mph 20.7 mph N/A Rain Heavy Rain
4:55 AM 77.0 °F 73.4 °F 89% 29.56 in 10.0 mi SSW 9.2 mph 16.1 mph 0.02 in   Mostly Cloudy
5:15 AM 77.0 °F 73.4 °F 89% 29.56 in 10.0 mi SW 5.8 mph 17.3 mph N/A   Mostly Cloudy
5:35 AM 77.0 °F 73.4 °F 89% 29.56 in 10.0 mi SW 8.1 mph - N/A   Mostly Cloudy
5:55 AM 77.0 °F 73.4 °F 89% 29.56 in 10.0 mi SW 6.9 mph - N/A   Overcast
6:15 AM 77.0 °F 73.4 °F 89% 29.56 in 10.0 mi SW 9.2 mph 16.1 mph N/A   Overcast
6:35 AM 77.0 °F 73.4 °F 89% 29.57 in 10.0 mi SW 11.5 mph 18.4 mph N/A   Overcast
6:55 AM 78.8 °F 73.4 °F 83% 29.58 in 10.0 mi SW 6.9 mph - N/A   Overcast
7:15 AM 77.0 °F 71.6 °F 83% 29.59 in 10.0 mi SW 9.2 mph 18.4 mph N/A   Overcast
7:35 AM 78.8 °F 71.6 °F 78% 29.59 in 10.0 mi SW 8.1 mph 19.6 mph N/A   Overcast
7:55 AM 78.8 °F 71.6 °F 78% 29.59 in 10.0 mi WSW 15.0 mph 23.0 mph N/A   Overcast
8:15 AM 77.0 °F 71.6 °F 83% 29.59 in 10.0 mi SW 11.5 mph 19.6 mph N/A   Scattered Clouds
8:35 AM 78.8 °F 71.6 °F 78% 29.60 in 10.0 mi SW 11.5 mph 18.4 mph N/A   Scattered Clouds
8:55 AM 77.0 °F 71.6 °F 83% 29.61 in 10.0 mi WSW 9.2 mph 20.7 mph N/A   Mostly Cloudy
9:15 AM 77.0 °F 71.6 °F 83% 29.62 in 10.0 mi SW 10.4 mph 19.6 mph N/A   Mostly Cloudy
9:35 AM 77.0 °F 69.8 °F 78% 29.63 in 10.0 mi SW 10.4 mph 17.3 mph N/A   Mostly Cloudy
9:55 AM 77.0 °F 69.8 °F 78% 29.64 in 10.0 mi SW 12.7 mph 18.4 mph N/A   Mostly Cloudy
10:15 AM 77.0 °F 68.0 °F 74% 29.64 in 10.0 mi SW 13.8 mph 21.9 mph N/A   Mostly Cloudy
10:35 AM 75.2 °F 68.0 °F 78% 29.64 in 10.0 mi SW 12.7 mph 20.7 mph N/A   Overcast
10:55 AM 77.0 °F 68.0 °F 74% 29.64 in 10.0 mi WSW 12.7 mph 19.6 mph N/A   Overcast
11:15 AM 77.0 °F 68.0 °F 74% 29.64 in 10.0 mi WSW 12.7 mph 17.3 mph N/A   Overcast
11:35 AM 77.0 °F 68.0 °F 74% 29.64 in 10.0 mi SW 10.4 mph 18.4 mph N/A   Mostly Cloudy
11:55 AM 77.0 °F 68.0 °F 74% 29.65 in 10.0 mi WSW 15.0 mph 21.9 mph N/A   Overcast
12:15 PM 77.0 °F 66.2 °F 69% 29.65 in 10.0 mi SW 10.4 mph 19.6 mph N/A   Overcast
12:35 PM 77.0 °F 66.2 °F 69% 29.64 in 10.0 mi WSW 16.1 mph 21.9 mph N/A   Overcast
12:55 PM 77.0 °F 64.4 °F 65% 29.64 in 10.0 mi SW 11.5 mph 21.9 mph N/A   Overcast
1:15 PM 77.0 °F 64.4 °F 65% 29.63 in 10.0 mi SW 11.5 mph 19.6 mph N/A   Overcast
1:35 PM 75.2 °F 66.2 °F 73% 29.63 in 10.0 mi WSW 12.7 mph 17.3 mph N/A   Overcast
1:55 PM 77.0 °F 66.2 °F 69% 29.62 in 10.0 mi SSW 10.4 mph 17.3 mph N/A   Overcast
2:15 PM 77.0 °F 64.4 °F 65% 29.62 in 10.0 mi SW 12.7 mph 19.6 mph N/A   Mostly Cloudy
2:35 PM 77.0 °F 64.4 °F 65% 29.62 in 10.0 mi SW 13.8 mph 18.4 mph N/A   Scattered Clouds
2:55 PM 77.0 °F 64.4 °F 65% 29.62 in 10.0 mi SW 9.2 mph 18.4 mph N/A   Mostly Cloudy
3:15 PM 75.2 °F 64.4 °F 69% 29.62 in 10.0 mi SSW 9.2 mph - N/A   Mostly Cloudy
3:35 PM 73.4 °F 64.4 °F 73% 29.62 in 10.0 mi SSW 8.1 mph - N/A   Overcast
3:55 PM 77.0 °F 64.4 °F 65% 29.61 in 10.0 mi SSW 8.1 mph 17.3 mph N/A   Mostly Cloudy
4:15 PM 77.0 °F 64.4 °F 65% 29.61 in 10.0 mi SW 8.1 mph 16.1 mph N/A   Mostly Cloudy
4:35 PM 73.4 °F 62.6 °F 69% 29.61 in 10.0 mi SW 8.1 mph 17.3 mph N/A   Mostly Cloudy
5:15 PM 73.4 °F 64.4 °F 73% 29.62 in 10.0 mi WSW 10.4 mph - N/A   Overcast
5:35 PM 71.6 °F 62.6 °F 73% 29.63 in 10.0 mi WSW 9.2 mph - N/A   Overcast
5:55 PM 71.6 °F 62.6 °F 73% 29.63 in 10.0 mi West 6.9 mph - N/A   Overcast
6:15 PM 71.6 °F 62.6 °F 73% 29.64 in 10.0 mi West 4.6 mph - N/A   Overcast
6:35 PM 69.8 °F 60.8 °F 73% 29.64 in 10.0 mi WSW 8.1 mph - N/A   Overcast
6:55 PM 69.8 °F 60.8 °F 73% 29.65 in 10.0 mi West 8.1 mph - N/A   Overcast
7:15 PM 69.8 °F 60.8 °F 73% 29.66 in 10.0 mi West 6.9 mph - N/A   Overcast
7:35 PM 69.8 °F 62.6 °F 78% 29.66 in 10.0 mi West 4.6 mph - N/A   Overcast
7:55 PM 68.0 °F 62.6 °F 83% 29.68 in 10.0 mi West 4.6 mph - N/A   Overcast
8:15 PM 68.0 °F 62.6 °F 83% 29.69 in 10.0 mi West 8.1 mph - N/A   Overcast
8:55 PM 68.0 °F 62.6 °F 83% 29.72 in 10.0 mi West 4.6 mph - N/A   Overcast
9:15 PM 68.0 °F 62.6 °F 83% 29.72 in 10.0 mi WNW 3.5 mph - N/A   Overcast
9:35 PM 68.0 °F 62.6 °F 83% 29.72 in 10.0 mi WNW 4.6 mph - N/A   Overcast
9:55 PM 68.0 °F 62.6 °F 83% 29.73 in 10.0 mi West 8.1 mph - N/A   Overcast
10:15 PM 68.0 °F 62.6 °F 83% 29.73 in 10.0 mi West 4.6 mph - N/A   Overcast
10:35 PM 68.0 °F 62.6 °F 83% 29.74 in 10.0 mi West 5.8 mph - N/A   Overcast
10:55 PM 68.0 °F 62.6 °F 83% 29.73 in 10.0 mi Calm Calm - N/A   Overcast
11:55 PM 68.0 °F 62.6 °F 83% 29.74 in 10.0 mi West 4.6 mph - N/A   Overcast